sensor_id;sensor_type;location;lat;lon;timestamp;P1;durP1;ratioP1;P2;durP2;ratioP2
6280;SDS011;3173;48.204;11.612;2022-07-23T00:02:06;6.93;;;6.10;;
6280;SDS011;3173;48.204;11.612;2022-07-23T00:04:33;8.37;;;6.30;;
6280;SDS011;3173;48.204;11.612;2022-07-23T00:06:59;7.80;;;6.00;;
6280;SDS011;3173;48.204;11.612;2022-07-23T00:09:25;9.40;;;6.77;;
6280;SDS011;3173;48.204;11.612;2022-07-23T00:11:51;6.40;;;5.70;;
6280;SDS011;3173;48.204;11.612;2022-07-23T00:14:17;8.40;;;6.10;;
6280;SDS011;3173;48.204;11.612;2022-07-23T00:16:43;7.83;;;5.70;;
6280;SDS011;3173;48.204;11.612;2022-07-23T00:19:09;6.60;;;5.53;;
6280;SDS011;3173;48.204;11.612;2022-07-23T00:21:35;6.30;;;5.70;;
6280;SDS011;3173;48.204;11.612;2022-07-23T00:24:01;6.20;;;5.50;;
6280;SDS011;3173;48.204;11.612;2022-07-23T00:26:27;7.27;;;5.60;;
6280;SDS011;3173;48.204;11.612;2022-07-23T00:28:53;8.57;;;5.73;;
6280;SDS011;3173;48.204;11.612;2022-07-23T00:31:19;7.57;;;5.53;;
6280;SDS011;3173;48.204;11.612;2022-07-23T00:33:45;7.13;;;5.80;;
6280;SDS011;3173;48.204;11.612;2022-07-23T00:36:11;7.20;;;6.00;;
6280;SDS011;3173;48.204;11.612;2022-07-23T00:38:37;6.23;;;5.30;;
6280;SDS011;3173;48.204;11.612;2022-07-23T00:41:03;8.33;;;6.53;;
6280;SDS011;3173;48.204;11.612;2022-07-23T00:43:29;6.33;;;5.73;;
6280;SDS011;3173;48.204;11.612;2022-07-23T00:45:55;6.53;;;5.83;;
6280;SDS011;3173;48.204;11.612;2022-07-23T00:48:21;7.80;;;6.10;;
6280;SDS011;3173;48.204;11.612;2022-07-23T00:50:47;6.93;;;5.47;;
6280;SDS011;3173;48.204;11.612;2022-07-23T00:53:13;7.77;;;5.63;;
6280;SDS011;3173;48.204;11.612;2022-07-23T00:55:39;11.03;;;5.53;;
6280;SDS011;3173;48.204;11.612;2022-07-23T00:58:05;6.87;;;5.90;;
6280;SDS011;3173;48.204;11.612;2022-07-23T01:00:31;6.90;;;5.50;;
6280;SDS011;3173;48.204;11.612;2022-07-23T01:02:57;7.87;;;5.80;;
6280;SDS011;3173;48.204;11.612;2022-07-23T01:05:23;7.93;;;6.57;;
6280;SDS011;3173;48.204;11.612;2022-07-23T01:07:50;11.90;;;6.10;;
6280;SDS011;3173;48.204;11.612;2022-07-23T01:10:16;7.03;;;5.23;;
6280;SDS011;3173;48.204;11.612;2022-07-23T01:12:58;10.40;;;5.83;;
6280;SDS011;3173;48.204;11.612;2022-07-23T01:15:24;13.07;;;5.60;;
6280;SDS011;3173;48.204;11.612;2022-07-23T01:17:50;9.40;;;6.80;;
6280;SDS011;3173;48.204;11.612;2022-07-23T01:20:17;8.77;;;6.90;;
6280;SDS011;3173;48.204;11.612;2022-07-23T01:22:43;8.27;;;6.50;;
6280;SDS011;3173;48.204;11.612;2022-07-23T01:25:09;12.10;;;7.40;;
6280;SDS011;3173;48.204;11.612;2022-07-23T01:27:35;22.43;;;8.40;;
6280;SDS011;3173;48.204;11.612;2022-07-23T01:30:02;13.53;;;7.43;;
6280;SDS011;3173;48.204;11.612;2022-07-23T01:32:28;15.80;;;7.43;;
6280;SDS011;3173;48.204;11.612;2022-07-23T01:34:54;17.10;;;6.70;;
6280;SDS011;3173;48.204;11.612;2022-07-23T01:37:20;22.27;;;6.97;;
6280;SDS011;3173;48.204;11.612;2022-07-23T01:39:46;49.37;;;8.17;;
6280;SDS011;3173;48.204;11.612;2022-07-23T01:42:12;11.10;;;6.57;;
6280;SDS011;3173;48.204;11.612;2022-07-23T01:44:38;17.43;;;6.53;;
6280;SDS011;3173;48.204;11.612;2022-07-23T01:47:04;14.03;;;6.30;;
6280;SDS011;3173;48.204;11.612;2022-07-23T01:49:30;12.77;;;6.53;;
6280;SDS011;3173;48.204;11.612;2022-07-23T01:51:56;9.13;;;5.97;;
6280;SDS011;3173;48.204;11.612;2022-07-23T01:54:25;7.97;;;5.90;;
6280;SDS011;3173;48.204;11.612;2022-07-23T01:56:51;8.50;;;5.90;;
6280;SDS011;3173;48.204;11.612;2022-07-23T01:59:17;10.57;;;6.90;;
6280;SDS011;3173;48.204;11.612;2022-07-23T02:01:43;9.67;;;5.87;;
6280;SDS011;3173;48.204;11.612;2022-07-23T02:04:09;10.33;;;5.47;;
6280;SDS011;3173;48.204;11.612;2022-07-23T02:06:35;11.70;;;5.97;;
6280;SDS011;3173;48.204;11.612;2022-07-23T02:09:01;8.47;;;6.10;;
6280;SDS011;3173;48.204;11.612;2022-07-23T02:11:27;10.27;;;5.73;;
6280;SDS011;3173;48.204;11.612;2022-07-23T02:13:53;8.13;;;5.70;;
6280;SDS011;3173;48.204;11.612;2022-07-23T02:16:19;7.80;;;5.53;;
6280;SDS011;3173;48.204;11.612;2022-07-23T02:18:45;5.73;;;4.90;;
6280;SDS011;3173;48.204;11.612;2022-07-23T02:21:11;9.10;;;5.00;;
6280;SDS011;3173;48.204;11.612;2022-07-23T02:23:37;6.87;;;4.50;;
6280;SDS011;3173;48.204;11.612;2022-07-23T02:26:03;8.67;;;5.17;;
6280;SDS011;3173;48.204;11.612;2022-07-23T02:28:29;7.80;;;5.20;;
6280;SDS011;3173;48.204;11.612;2022-07-23T02:30:55;10.53;;;4.87;;
6280;SDS011;3173;48.204;11.612;2022-07-23T02:33:21;6.60;;;4.80;;
6280;SDS011;3173;48.204;11.612;2022-07-23T02:35:47;10.23;;;5.23;;
6280;SDS011;3173;48.204;11.612;2022-07-23T02:38:13;16.27;;;5.87;;
6280;SDS011;3173;48.204;11.612;2022-07-23T02:40:39;7.47;;;4.87;;
6280;SDS011;3173;48.204;11.612;2022-07-23T02:43:05;11.13;;;5.37;;
6280;SDS011;3173;48.204;11.612;2022-07-23T02:45:31;14.83;;;4.40;;
6280;SDS011;3173;48.204;11.612;2022-07-23T02:47:57;5.77;;;4.83;;
6280;SDS011;3173;48.204;11.612;2022-07-23T02:50:23;8.10;;;5.13;;
6280;SDS011;3173;48.204;11.612;2022-07-23T02:52:49;6.83;;;5.13;;
6280;SDS011;3173;48.204;11.612;2022-07-23T02:55:15;6.60;;;4.50;;
6280;SDS011;3173;48.204;11.612;2022-07-23T02:57:41;6.40;;;4.17;;
6280;SDS011;3173;48.204;11.612;2022-07-23T03:00:07;8.77;;;4.20;;
6280;SDS011;3173;48.204;11.612;2022-07-23T03:02:33;6.43;;;4.60;;
6280;SDS011;3173;48.204;11.612;2022-07-23T03:04:59;8.00;;;4.10;;
6280;SDS011;3173;48.204;11.612;2022-07-23T03:07:25;6.47;;;5.00;;
6280;SDS011;3173;48.204;11.612;2022-07-23T03:09:51;9.43;;;4.90;;
6280;SDS011;3173;48.204;11.612;2022-07-23T03:12:17;6.57;;;4.70;;
6280;SDS011;3173;48.204;11.612;2022-07-23T03:14:43;5.50;;;4.47;;
6280;SDS011;3173;48.204;11.612;2022-07-23T03:17:09;7.73;;;4.27;;
6280;SDS011;3173;48.204;11.612;2022-07-23T03:19:35;6.90;;;4.90;;
6280;SDS011;3173;48.204;11.612;2022-07-23T03:22:02;9.07;;;4.50;;
6280;SDS011;3173;48.204;11.612;2022-07-23T03:24:28;4.40;;;3.50;;
6280;SDS011;3173;48.204;11.612;2022-07-23T03:27:13;6.77;;;3.70;;
6280;SDS011;3173;48.204;11.612;2022-07-23T03:29:39;6.13;;;4.03;;
6280;SDS011;3173;48.204;11.612;2022-07-23T03:32:05;5.47;;;4.20;;
6280;SDS011;3173;48.204;11.612;2022-07-23T03:34:31;7.67;;;4.40;;
6280;SDS011;3173;48.204;11.612;2022-07-23T03:36:57;5.27;;;3.70;;
6280;SDS011;3173;48.204;11.612;2022-07-23T03:39:23;5.63;;;4.07;;
6280;SDS011;3173;48.204;11.612;2022-07-23T03:41:49;5.50;;;3.90;;
6280;SDS011;3173;48.204;11.612;2022-07-23T03:44:15;5.37;;;3.80;;
6280;SDS011;3173;48.204;11.612;2022-07-23T03:46:41;6.47;;;3.50;;
6280;SDS011;3173;48.204;11.612;2022-07-23T03:49:06;5.43;;;3.93;;
6280;SDS011;3173;48.204;11.612;2022-07-23T03:51:32;8.30;;;3.50;;
6280;SDS011;3173;48.204;11.612;2022-07-23T03:53:58;6.27;;;3.93;;
6280;SDS011;3173;48.204;11.612;2022-07-23T03:56:24;3.87;;;3.37;;
6280;SDS011;3173;48.204;11.612;2022-07-23T03:58:51;6.77;;;4.00;;
6280;SDS011;3173;48.204;11.612;2022-07-23T04:01:17;4.80;;;3.70;;
6280;SDS011;3173;48.204;11.612;2022-07-23T04:03:43;4.53;;;3.60;;
6280;SDS011;3173;48.204;11.612;2022-07-23T04:06:09;5.27;;;4.43;;
6280;SDS011;3173;48.204;11.612;2022-07-23T04:08:35;6.40;;;3.80;;
6280;SDS011;3173;48.204;11.612;2022-07-23T04:11:01;8.13;;;3.93;;
6280;SDS011;3173;48.204;11.612;2022-07-23T04:13:27;5.13;;;4.00;;
6280;SDS011;3173;48.204;11.612;2022-07-23T04:15:53;6.80;;;3.80;;
6280;SDS011;3173;48.204;11.612;2022-07-23T04:18:18;5.43;;;4.03;;
6280;SDS011;3173;48.204;11.612;2022-07-23T04:20:46;5.67;;;4.67;;
6280;SDS011;3173;48.204;11.612;2022-07-23T04:23:12;6.00;;;4.40;;
6280;SDS011;3173;48.204;11.612;2022-07-23T04:25:38;7.20;;;4.87;;
6280;SDS011;3173;48.204;11.612;2022-07-23T04:28:04;5.63;;;4.63;;
6280;SDS011;3173;48.204;11.612;2022-07-23T04:30:30;7.70;;;4.60;;
6280;SDS011;3173;48.204;11.612;2022-07-23T04:32:56;9.23;;;5.10;;
6280;SDS011;3173;48.204;11.612;2022-07-23T04:35:22;8.40;;;4.70;;
6280;SDS011;3173;48.204;11.612;2022-07-23T04:37:48;7.70;;;4.67;;
6280;SDS011;3173;48.204;11.612;2022-07-23T04:40:14;4.87;;;4.13;;
6280;SDS011;3173;48.204;11.612;2022-07-23T04:42:40;6.33;;;4.47;;
6280;SDS011;3173;48.204;11.612;2022-07-23T04:45:06;6.70;;;4.80;;
6280;SDS011;3173;48.204;11.612;2022-07-23T04:47:32;5.40;;;4.60;;
6280;SDS011;3173;48.204;11.612;2022-07-23T04:49:58;10.17;;;5.00;;
6280;SDS011;3173;48.204;11.612;2022-07-23T04:52:24;6.63;;;5.20;;
6280;SDS011;3173;48.204;11.612;2022-07-23T04:54:50;5.87;;;4.47;;
6280;SDS011;3173;48.204;11.612;2022-07-23T04:57:16;5.93;;;4.60;;
6280;SDS011;3173;48.204;11.612;2022-07-23T04:59:42;6.10;;;4.60;;
6280;SDS011;3173;48.204;11.612;2022-07-23T05:02:08;7.00;;;5.27;;
6280;SDS011;3173;48.204;11.612;2022-07-23T05:04:34;6.30;;;4.63;;
6280;SDS011;3173;48.204;11.612;2022-07-23T05:07:00;6.20;;;5.20;;
6280;SDS011;3173;48.204;11.612;2022-07-23T05:09:26;10.60;;;5.17;;
6280;SDS011;3173;48.204;11.612;2022-07-23T05:11:52;5.60;;;5.00;;
6280;SDS011;3173;48.204;11.612;2022-07-23T05:14:18;7.03;;;5.40;;
6280;SDS011;3173;48.204;11.612;2022-07-23T05:16:44;6.10;;;4.80;;
6280;SDS011;3173;48.204;11.612;2022-07-23T05:19:10;6.93;;;4.60;;
6280;SDS011;3173;48.204;11.612;2022-07-23T05:21:36;7.83;;;4.83;;
6280;SDS011;3173;48.204;11.612;2022-07-23T05:24:02;6.53;;;5.00;;
6280;SDS011;3173;48.204;11.612;2022-07-23T05:26:28;7.03;;;5.60;;
6280;SDS011;3173;48.204;11.612;2022-07-23T05:28:54;5.70;;;4.43;;
6280;SDS011;3173;48.204;11.612;2022-07-23T05:31:20;6.40;;;5.47;;
6280;SDS011;3173;48.204;11.612;2022-07-23T05:33:46;6.23;;;5.30;;
6280;SDS011;3173;48.204;11.612;2022-07-23T05:36:12;7.93;;;5.23;;
6280;SDS011;3173;48.204;11.612;2022-07-23T05:38:38;7.63;;;5.13;;
6280;SDS011;3173;48.204;11.612;2022-07-23T05:41:03;5.87;;;4.57;;
6280;SDS011;3173;48.204;11.612;2022-07-23T05:43:29;8.63;;;5.10;;
6280;SDS011;3173;48.204;11.612;2022-07-23T05:45:55;7.80;;;5.47;;
6280;SDS011;3173;48.204;11.612;2022-07-23T05:48:21;6.50;;;5.27;;
6280;SDS011;3173;48.204;11.612;2022-07-23T05:50:47;7.53;;;5.20;;
6280;SDS011;3173;48.204;11.612;2022-07-23T05:53:13;7.53;;;5.60;;
6280;SDS011;3173;48.204;11.612;2022-07-23T05:55:39;8.37;;;5.50;;
6280;SDS011;3173;48.204;11.612;2022-07-23T05:58:05;6.77;;;5.10;;
6280;SDS011;3173;48.204;11.612;2022-07-23T06:00:31;12.00;;;6.20;;
6280;SDS011;3173;48.204;11.612;2022-07-23T06:02:57;6.87;;;5.70;;
6280;SDS011;3173;48.204;11.612;2022-07-23T06:05:23;6.67;;;5.57;;
6280;SDS011;3173;48.204;11.612;2022-07-23T06:07:50;9.30;;;5.80;;
6280;SDS011;3173;48.204;11.612;2022-07-23T06:10:16;9.20;;;6.27;;
6280;SDS011;3173;48.204;11.612;2022-07-23T06:12:42;7.00;;;5.57;;
6280;SDS011;3173;48.204;11.612;2022-07-23T06:15:08;14.47;;;6.33;;
6280;SDS011;3173;48.204;11.612;2022-07-23T06:17:35;7.80;;;5.80;;
6280;SDS011;3173;48.204;11.612;2022-07-23T06:20:04;7.23;;;5.87;;
6280;SDS011;3173;48.204;11.612;2022-07-23T06:22:30;8.97;;;6.07;;
6280;SDS011;3173;48.204;11.612;2022-07-23T06:24:55;8.83;;;5.90;;
6280;SDS011;3173;48.204;11.612;2022-07-23T06:27:21;6.23;;;5.57;;
6280;SDS011;3173;48.204;11.612;2022-07-23T06:29:47;7.33;;;6.57;;
6280;SDS011;3173;48.204;11.612;2022-07-23T06:32:13;6.50;;;5.53;;
6280;SDS011;3173;48.204;11.612;2022-07-23T06:34:39;6.60;;;5.37;;
6280;SDS011;3173;48.204;11.612;2022-07-23T06:37:05;8.30;;;6.27;;
6280;SDS011;3173;48.204;11.612;2022-07-23T06:39:31;11.33;;;5.87;;
6280;SDS011;3173;48.204;11.612;2022-07-23T06:41:57;9.90;;;6.13;;
6280;SDS011;3173;48.204;11.612;2022-07-23T06:44:23;7.00;;;5.20;;
6280;SDS011;3173;48.204;11.612;2022-07-23T06:46:49;6.60;;;5.80;;
6280;SDS011;3173;48.204;11.612;2022-07-23T06:49:15;9.60;;;6.97;;
6280;SDS011;3173;48.204;11.612;2022-07-23T06:51:41;10.10;;;6.57;;
6280;SDS011;3173;48.204;11.612;2022-07-23T06:54:07;7.60;;;5.90;;
6280;SDS011;3173;48.204;11.612;2022-07-23T06:56:33;8.07;;;6.23;;
6280;SDS011;3173;48.204;11.612;2022-07-23T06:58:59;8.20;;;6.70;;
6280;SDS011;3173;48.204;11.612;2022-07-23T07:01:25;8.20;;;6.10;;
6280;SDS011;3173;48.204;11.612;2022-07-23T07:03:51;8.77;;;5.43;;
6280;SDS011;3173;48.204;11.612;2022-07-23T07:06:17;8.27;;;7.03;;
6280;SDS011;3173;48.204;11.612;2022-07-23T07:08:43;7.43;;;6.03;;
6280;SDS011;3173;48.204;11.612;2022-07-23T07:11:09;8.83;;;6.03;;
6280;SDS011;3173;48.204;11.612;2022-07-23T07:13:35;6.90;;;5.37;;
6280;SDS011;3173;48.204;11.612;2022-07-23T07:16:02;8.00;;;5.67;;
6280;SDS011;3173;48.204;11.612;2022-07-23T07:18:28;9.97;;;5.17;;
6280;SDS011;3173;48.204;11.612;2022-07-23T07:20:54;7.87;;;5.20;;
6280;SDS011;3173;48.204;11.612;2022-07-23T07:23:20;8.40;;;6.30;;
6280;SDS011;3173;48.204;11.612;2022-07-23T07:25:46;10.13;;;5.60;;
6280;SDS011;3173;48.204;11.612;2022-07-23T07:28:12;8.13;;;6.37;;
6280;SDS011;3173;48.204;11.612;2022-07-23T07:30:38;13.77;;;6.20;;
6280;SDS011;3173;48.204;11.612;2022-07-23T07:33:04;8.03;;;6.30;;
6280;SDS011;3173;48.204;11.612;2022-07-23T07:35:30;9.33;;;6.73;;
6280;SDS011;3173;48.204;11.612;2022-07-23T07:37:57;8.20;;;6.70;;
6280;SDS011;3173;48.204;11.612;2022-07-23T07:40:23;14.37;;;6.30;;
6280;SDS011;3173;48.204;11.612;2022-07-23T07:42:50;7.70;;;6.30;;
6280;SDS011;3173;48.204;11.612;2022-07-23T07:45:17;9.70;;;6.33;;
6280;SDS011;3173;48.204;11.612;2022-07-23T07:47:43;8.80;;;6.90;;
6280;SDS011;3173;48.204;11.612;2022-07-23T07:50:09;9.67;;;5.90;;
6280;SDS011;3173;48.204;11.612;2022-07-23T07:52:35;7.87;;;6.80;;
6280;SDS011;3173;48.204;11.612;2022-07-23T07:55:05;11.20;;;6.70;;
6280;SDS011;3173;48.204;11.612;2022-07-23T07:57:32;8.60;;;6.70;;
6280;SDS011;3173;48.204;11.612;2022-07-23T07:59:57;8.23;;;6.67;;
6280;SDS011;3173;48.204;11.612;2022-07-23T08:02:23;9.83;;;6.23;;
6280;SDS011;3173;48.204;11.612;2022-07-23T08:04:50;8.73;;;7.20;;
6280;SDS011;3173;48.204;11.612;2022-07-23T08:07:16;7.63;;;6.37;;
6280;SDS011;3173;48.204;11.612;2022-07-23T08:09:41;9.37;;;6.97;;
6280;SDS011;3173;48.204;11.612;2022-07-23T08:12:07;9.30;;;6.57;;
6280;SDS011;3173;48.204;11.612;2022-07-23T08:14:33;8.00;;;6.13;;
6280;SDS011;3173;48.204;11.612;2022-07-23T08:16:59;7.80;;;6.20;;
6280;SDS011;3173;48.204;11.612;2022-07-23T08:19:25;7.93;;;6.80;;
6280;SDS011;3173;48.204;11.612;2022-07-23T08:21:51;8.43;;;6.40;;
6280;SDS011;3173;48.204;11.612;2022-07-23T08:24:17;7.70;;;5.60;;
6280;SDS011;3173;48.204;11.612;2022-07-23T08:26:43;7.80;;;6.17;;
6280;SDS011;3173;48.204;11.612;2022-07-23T08:29:09;9.17;;;6.60;;
6280;SDS011;3173;48.204;11.612;2022-07-23T08:31:35;7.83;;;6.40;;
6280;SDS011;3173;48.204;11.612;2022-07-23T08:34:01;8.07;;;6.20;;
6280;SDS011;3173;48.204;11.612;2022-07-23T08:36:28;10.80;;;7.20;;
6280;SDS011;3173;48.204;11.612;2022-07-23T08:38:57;8.23;;;6.73;;
6280;SDS011;3173;48.204;11.612;2022-07-23T08:41:23;14.43;;;6.60;;
6280;SDS011;3173;48.204;11.612;2022-07-23T08:43:49;8.97;;;7.17;;
6280;SDS011;3173;48.204;11.612;2022-07-23T08:46:15;10.80;;;6.90;;
6280;SDS011;3173;48.204;11.612;2022-07-23T08:48:42;8.43;;;6.20;;
6280;SDS011;3173;48.204;11.612;2022-07-23T08:51:08;8.23;;;6.40;;
6280;SDS011;3173;48.204;11.612;2022-07-23T08:53:35;7.93;;;6.13;;
6280;SDS011;3173;48.204;11.612;2022-07-23T08:56:03;8.73;;;5.67;;
6280;SDS011;3173;48.204;11.612;2022-07-23T08:58:30;9.13;;;6.80;;
6280;SDS011;3173;48.204;11.612;2022-07-23T09:00:56;7.60;;;6.10;;
6280;SDS011;3173;48.204;11.612;2022-07-23T09:03:23;7.80;;;6.03;;
6280;SDS011;3173;48.204;11.612;2022-07-23T09:05:50;8.07;;;6.40;;
6280;SDS011;3173;48.204;11.612;2022-07-23T09:08:20;6.60;;;5.77;;
6280;SDS011;3173;48.204;11.612;2022-07-23T09:10:48;9.77;;;6.80;;
6280;SDS011;3173;48.204;11.612;2022-07-23T09:16:00;9.33;;;6.37;;
6280;SDS011;3173;48.204;11.612;2022-07-23T09:19:08;8.70;;;6.40;;
6280;SDS011;3173;48.204;11.612;2022-07-23T09:23:43;9.33;;;6.30;;
6280;SDS011;3173;48.204;11.612;2022-07-23T09:28:51;8.87;;;6.57;;
6280;SDS011;3173;48.204;11.612;2022-07-23T09:31:18;9.40;;;6.00;;
6280;SDS011;3173;48.204;11.612;2022-07-23T09:33:44;7.30;;;6.53;;
6280;SDS011;3173;48.204;11.612;2022-07-23T09:36:10;7.50;;;5.83;;
6280;SDS011;3173;48.204;11.612;2022-07-23T09:38:37;7.27;;;5.87;;
6280;SDS011;3173;48.204;11.612;2022-07-23T09:41:13;7.90;;;5.80;;
6280;SDS011;3173;48.204;11.612;2022-07-23T09:43:39;8.60;;;5.40;;
6280;SDS011;3173;48.204;11.612;2022-07-23T09:48:43;6.77;;;5.57;;
6280;SDS011;3173;48.204;11.612;2022-07-23T09:51:09;7.20;;;5.60;;
6280;SDS011;3173;48.204;11.612;2022-07-23T09:53:35;6.63;;;5.40;;
6280;SDS011;3173;48.204;11.612;2022-07-23T09:56:01;6.70;;;5.37;;
6280;SDS011;3173;48.204;11.612;2022-07-23T09:58:27;7.87;;;5.97;;
6280;SDS011;3173;48.204;11.612;2022-07-23T10:00:54;5.70;;;5.07;;
6280;SDS011;3173;48.204;11.612;2022-07-23T10:03:21;8.23;;;6.07;;
6280;SDS011;3173;48.204;11.612;2022-07-23T10:05:49;5.77;;;4.83;;
6280;SDS011;3173;48.204;11.612;2022-07-23T10:08:17;5.70;;;5.10;;
6280;SDS011;3173;48.204;11.612;2022-07-23T10:10:44;6.03;;;4.53;;
6280;SDS011;3173;48.204;11.612;2022-07-23T10:13:11;8.40;;;5.07;;
6280;SDS011;3173;48.204;11.612;2022-07-23T10:16:06;7.70;;;5.20;;
6280;SDS011;3173;48.204;11.612;2022-07-23T10:18:33;8.30;;;5.20;;
6280;SDS011;3173;48.204;11.612;2022-07-23T10:20:59;5.40;;;4.43;;
6280;SDS011;3173;48.204;11.612;2022-07-23T10:23:32;5.17;;;4.67;;
6280;SDS011;3173;48.204;11.612;2022-07-23T10:26:03;6.67;;;5.43;;
6280;SDS011;3173;48.204;11.612;2022-07-23T10:31:16;4.60;;;4.20;;
6280;SDS011;3173;48.204;11.612;2022-07-23T10:36:23;5.97;;;4.37;;
6280;SDS011;3173;48.204;11.612;2022-07-23T10:39:07;4.63;;;4.03;;
6280;SDS011;3173;48.204;11.612;2022-07-23T10:41:35;5.70;;;4.60;;
6280;SDS011;3173;48.204;11.612;2022-07-23T10:44:20;5.03;;;4.40;;
6280;SDS011;3173;48.204;11.612;2022-07-23T10:47:04;5.53;;;3.83;;
6280;SDS011;3173;48.204;11.612;2022-07-23T10:50:21;4.30;;;3.90;;
6280;SDS011;3173;48.204;11.612;2022-07-23T10:58:04;4.77;;;4.20;;
6280;SDS011;3173;48.204;11.612;2022-07-23T11:00:33;5.57;;;4.13;;
6280;SDS011;3173;48.204;11.612;2022-07-23T11:03:03;4.50;;;3.90;;
6280;SDS011;3173;48.204;11.612;2022-07-23T11:05:40;6.50;;;3.97;;
6280;SDS011;3173;48.204;11.612;2022-07-23T11:10:35;6.63;;;4.47;;
6280;SDS011;3173;48.204;11.612;2022-07-23T11:19:03;5.27;;;3.57;;
6280;SDS011;3173;48.204;11.612;2022-07-23T11:23:57;3.90;;;3.40;;
6280;SDS011;3173;48.204;11.612;2022-07-23T11:32:04;8.20;;;4.07;;
6280;SDS011;3173;48.204;11.612;2022-07-23T11:36:56;6.57;;;4.27;;
6280;SDS011;3173;48.204;11.612;2022-07-23T11:39:24;10.80;;;4.73;;
6280;SDS011;3173;48.204;11.612;2022-07-23T11:41:51;7.43;;;4.50;;
6280;SDS011;3173;48.204;11.612;2022-07-23T11:44:27;8.10;;;4.53;;
6280;SDS011;3173;48.204;11.612;2022-07-23T11:46:56;5.00;;;4.50;;
6280;SDS011;3173;48.204;11.612;2022-07-23T11:49:23;8.13;;;4.80;;
6280;SDS011;3173;48.204;11.612;2022-07-23T11:54:30;6.47;;;4.53;;
6280;SDS011;3173;48.204;11.612;2022-07-23T11:56:57;8.10;;;4.80;;
6280;SDS011;3173;48.204;11.612;2022-07-23T11:59:24;9.27;;;5.17;;
6280;SDS011;3173;48.204;11.612;2022-07-23T12:02:00;5.93;;;5.33;;
6280;SDS011;3173;48.204;11.612;2022-07-23T12:04:42;7.63;;;5.20;;
6280;SDS011;3173;48.204;11.612;2022-07-23T12:09:53;6.13;;;5.43;;
6280;SDS011;3173;48.204;11.612;2022-07-23T12:12:19;6.47;;;5.33;;
6280;SDS011;3173;48.204;11.612;2022-07-23T12:14:53;5.57;;;4.97;;
6280;SDS011;3173;48.204;11.612;2022-07-23T12:17:20;7.23;;;5.87;;
6280;SDS011;3173;48.204;11.612;2022-07-23T12:19:46;7.90;;;5.80;;
6280;SDS011;3173;48.204;11.612;2022-07-23T12:22:12;7.40;;;5.40;;
6280;SDS011;3173;48.204;11.612;2022-07-23T12:27:37;8.57;;;5.80;;
6280;SDS011;3173;48.204;11.612;2022-07-23T12:33:01;7.47;;;6.10;;
6280;SDS011;3173;48.204;11.612;2022-07-23T12:35:34;9.60;;;5.80;;
6280;SDS011;3173;48.204;11.612;2022-07-23T12:38:03;7.00;;;5.80;;
6280;SDS011;3173;48.204;11.612;2022-07-23T12:40:31;8.70;;;6.43;;
6280;SDS011;3173;48.204;11.612;2022-07-23T12:43:32;6.70;;;4.97;;
6280;SDS011;3173;48.204;11.612;2022-07-23T12:45:51;8.57;;;5.43;;
6280;SDS011;3173;48.204;11.612;2022-07-23T12:50:56;6.80;;;5.60;;
6280;SDS011;3173;48.204;11.612;2022-07-23T12:53:30;5.90;;;5.30;;
6280;SDS011;3173;48.204;11.612;2022-07-23T12:56:16;6.10;;;5.50;;
6280;SDS011;3173;48.204;11.612;2022-07-23T13:06:25;9.10;;;5.70;;
6280;SDS011;3173;48.204;11.612;2022-07-23T13:08:51;10.30;;;6.60;;
6280;SDS011;3173;48.204;11.612;2022-07-23T13:11:17;6.93;;;4.97;;
6280;SDS011;3173;48.204;11.612;2022-07-23T13:13:43;7.73;;;5.33;;
6280;SDS011;3173;48.204;11.612;2022-07-23T13:16:09;11.90;;;6.00;;
6280;SDS011;3173;48.204;11.612;2022-07-23T13:18:35;6.33;;;5.60;;
6280;SDS011;3173;48.204;11.612;2022-07-23T13:21:01;6.23;;;5.50;;
6280;SDS011;3173;48.204;11.612;2022-07-23T13:23:27;7.27;;;6.43;;
6280;SDS011;3173;48.204;11.612;2022-07-23T13:25:53;7.87;;;5.80;;
6280;SDS011;3173;48.204;11.612;2022-07-23T13:28:20;7.10;;;6.07;;
6280;SDS011;3173;48.204;11.612;2022-07-23T13:30:46;9.53;;;5.33;;
6280;SDS011;3173;48.204;11.612;2022-07-23T13:33:14;12.20;;;6.17;;
6280;SDS011;3173;48.204;11.612;2022-07-23T13:35:40;7.37;;;5.97;;
6280;SDS011;3173;48.204;11.612;2022-07-23T13:38:06;8.07;;;6.27;;
6280;SDS011;3173;48.204;11.612;2022-07-23T13:40:33;9.13;;;6.23;;
6280;SDS011;3173;48.204;11.612;2022-07-23T13:42:59;8.67;;;5.97;;
6280;SDS011;3173;48.204;11.612;2022-07-23T13:45:25;7.90;;;6.07;;
6280;SDS011;3173;48.204;11.612;2022-07-23T13:47:51;7.20;;;6.50;;
6280;SDS011;3173;48.204;11.612;2022-07-23T13:50:17;7.73;;;5.70;;
6280;SDS011;3173;48.204;11.612;2022-07-23T13:52:43;9.40;;;6.30;;
6280;SDS011;3173;48.204;11.612;2022-07-23T13:55:09;7.67;;;6.87;;
6280;SDS011;3173;48.204;11.612;2022-07-23T13:57:36;7.70;;;6.50;;
6280;SDS011;3173;48.204;11.612;2022-07-23T14:00:03;9.97;;;6.67;;
6280;SDS011;3173;48.204;11.612;2022-07-23T14:02:29;9.43;;;6.50;;
6280;SDS011;3173;48.204;11.612;2022-07-23T14:04:55;8.33;;;6.47;;
6280;SDS011;3173;48.204;11.612;2022-07-23T14:07:21;8.53;;;6.67;;
6280;SDS011;3173;48.204;11.612;2022-07-23T14:09:47;8.10;;;6.50;;
6280;SDS011;3173;48.204;11.612;2022-07-23T14:12:14;8.97;;;6.20;;
6280;SDS011;3173;48.204;11.612;2022-07-23T14:14:40;6.97;;;6.27;;
6280;SDS011;3173;48.204;11.612;2022-07-23T14:17:07;11.90;;;7.23;;
6280;SDS011;3173;48.204;11.612;2022-07-23T14:19:32;8.53;;;6.70;;
6280;SDS011;3173;48.204;11.612;2022-07-23T14:21:59;7.77;;;7.00;;
6280;SDS011;3173;48.204;11.612;2022-07-23T14:24:25;10.33;;;6.40;;
6280;SDS011;3173;48.204;11.612;2022-07-23T14:26:51;10.90;;;6.73;;
6280;SDS011;3173;48.204;11.612;2022-07-23T14:29:17;10.43;;;7.10;;
6280;SDS011;3173;48.204;11.612;2022-07-23T14:31:43;8.07;;;6.50;;
6280;SDS011;3173;48.204;11.612;2022-07-23T14:34:09;8.53;;;6.70;;
6280;SDS011;3173;48.204;11.612;2022-07-23T14:36:36;7.77;;;6.47;;
6280;SDS011;3173;48.204;11.612;2022-07-23T14:39:02;9.53;;;6.60;;
6280;SDS011;3173;48.204;11.612;2022-07-23T14:41:28;7.07;;;5.80;;
6280;SDS011;3173;48.204;11.612;2022-07-23T14:43:54;9.67;;;6.17;;
6280;SDS011;3173;48.204;11.612;2022-07-23T14:46:21;7.50;;;6.00;;
6280;SDS011;3173;48.204;11.612;2022-07-23T14:48:47;6.70;;;6.00;;
6280;SDS011;3173;48.204;11.612;2022-07-23T14:51:13;12.50;;;7.23;;
6280;SDS011;3173;48.204;11.612;2022-07-23T14:53:38;8.33;;;6.20;;
6280;SDS011;3173;48.204;11.612;2022-07-23T14:56:04;8.10;;;6.50;;
6280;SDS011;3173;48.204;11.612;2022-07-23T14:58:30;7.37;;;6.33;;
6280;SDS011;3173;48.204;11.612;2022-07-23T15:00:57;7.13;;;5.63;;
6280;SDS011;3173;48.204;11.612;2022-07-23T15:03:23;6.10;;;5.40;;
6280;SDS011;3173;48.204;11.612;2022-07-23T15:05:49;7.27;;;6.30;;
6280;SDS011;3173;48.204;11.612;2022-07-23T15:08:15;10.70;;;6.57;;
6280;SDS011;3173;48.204;11.612;2022-07-23T15:10:41;7.90;;;6.77;;
6280;SDS011;3173;48.204;11.612;2022-07-23T15:13:07;6.83;;;5.90;;
6280;SDS011;3173;48.204;11.612;2022-07-23T15:15:33;9.73;;;6.17;;
6280;SDS011;3173;48.204;11.612;2022-07-23T15:17:59;7.33;;;6.27;;
6280;SDS011;3173;48.204;11.612;2022-07-23T15:20:25;11.10;;;6.53;;
6280;SDS011;3173;48.204;11.612;2022-07-23T15:22:51;7.97;;;5.90;;
6280;SDS011;3173;48.204;11.612;2022-07-23T15:25:17;6.43;;;5.60;;
6280;SDS011;3173;48.204;11.612;2022-07-23T15:27:43;7.90;;;5.70;;
6280;SDS011;3173;48.204;11.612;2022-07-23T15:30:09;8.27;;;6.53;;
6280;SDS011;3173;48.204;11.612;2022-07-23T15:32:35;8.27;;;5.33;;
6280;SDS011;3173;48.204;11.612;2022-07-23T15:35:01;6.53;;;5.87;;
6280;SDS011;3173;48.204;11.612;2022-07-23T15:37:30;6.60;;;5.17;;
6280;SDS011;3173;48.204;11.612;2022-07-23T15:39:56;6.77;;;5.20;;
6280;SDS011;3173;48.204;11.612;2022-07-23T15:42:22;8.27;;;5.50;;
6280;SDS011;3173;48.204;11.612;2022-07-23T15:44:48;7.10;;;5.50;;
6280;SDS011;3173;48.204;11.612;2022-07-23T15:47:15;7.77;;;5.67;;
6280;SDS011;3173;48.204;11.612;2022-07-23T15:49:41;6.63;;;5.93;;
6280;SDS011;3173;48.204;11.612;2022-07-23T15:52:07;9.93;;;6.60;;
6280;SDS011;3173;48.204;11.612;2022-07-23T15:54:34;7.23;;;6.43;;
6280;SDS011;3173;48.204;11.612;2022-07-23T15:57:01;7.67;;;6.60;;
6280;SDS011;3173;48.204;11.612;2022-07-23T15:59:28;7.37;;;6.67;;
6280;SDS011;3173;48.204;11.612;2022-07-23T16:01:53;9.37;;;6.40;;